Clovis, New Mexico
Current Conditions -  °F | °C
As of 9:15 PM on Thursday 27 Nov 2014 (Local Time) from KCVN Reporting Station
Clear Clear  
Wind Chill: 32°   Ceiling: Unl
Heat Index: 39°   Visibility: 10mi
Dew Point: 25°   Wind: 10mph
Humidity: 56%   Direction: 230°SW
Pressure: 30.24"   Gusts: NA
Location:  34.41°N, 103.2°W
Report Text: KCVN 280415Z 23009KT 10SM CLR 04/M04 A3024 RMK AO1
Loading
Personal Weather Stations






























Interactive Weather Map New forecast layout! Learn more

10-Day Weather Forecast

Advertisements
Track Severe Weather on mobile